Time;durP1;ratioP1;P1;durP2;ratioP2;P2;SDS_P1;SDS_P2;PMS_P1;PMS_P2;Temp;Humidity;BMP_temperature;BMP_pressure;BME280_temperature;BME280_humidity;BME280_pressure;Samples;Min_cycle;Max_cycle;Signal;HPM_P1;HPM_P2
2021/11/25 00:02:29;;;;;;;14.17;5.80;;;5.80;99.90;;;;;;4947536;29;20441;-85
2021/11/25 00:05:18;;;;;;;12.60;6.57;;;5.80;99.90;;;;;;4948235;29;20967;-84
2021/11/25 00:08:07;;;;;;;14.00;6.53;;;5.80;99.90;;;;;;4950123;29;20461;-83
2021/11/25 00:10:57;;;;;;;12.53;6.20;;;5.90;99.90;;;;;;4950179;29;20450;-84
2021/11/25 00:13:46;;;;;;;12.03;6.10;;;6.00;99.90;;;;;;4961734;28;20457;-83
2021/11/25 00:16:35;;;;;;;13.30;7.03;;;6.00;99.90;;;;;;4954908;28;20472;-83
2021/11/25 00:19:23;;;;;;;12.03;6.17;;;5.90;99.90;;;;;;4956329;29;20451;-82
2021/11/25 00:22:12;;;;;;;9.53;6.60;;;5.60;99.90;;;;;;4941280;28;20453;-83
2021/11/25 00:25:02;;;;;;;13.67;6.77;;;5.70;99.90;;;;;;4951170;29;20442;-83
2021/11/25 00:27:52;;;;;;;14.27;6.40;;;5.80;99.90;;;;;;4955167;28;20519;-84
2021/11/25 00:30:40;;;;;;;17.63;6.20;;;5.90;99.90;;;;;;4955942;28;20449;-83
2021/11/25 00:33:29;;;;;;;11.03;6.50;;;5.90;99.90;;;;;;4952076;28;20432;-83
2021/11/25 00:36:18;;;;;;;14.90;6.97;;;5.80;99.90;;;;;;4947734;28;20472;-80
2021/11/25 00:39:07;;;;;;;9.57;6.07;;;5.40;99.90;;;;;;4945262;29;20485;-84
2021/11/25 00:41:56;;;;;;;12.63;5.33;;;5.50;99.90;;;;;;4948929;29;20453;-84
2021/11/25 00:44:46;;;;;;;13.87;6.80;;;5.50;99.90;;;;;;4953622;29;20524;-84
2021/11/25 00:47:34;;;;;;;9.83;6.00;;;5.50;99.90;;;;;;4951091;29;20468;-84
2021/11/25 00:50:23;;;;;;;11.07;6.77;;;5.90;99.90;;;;;;4957917;28;20452;-83
2021/11/25 00:53:14;;;;;;;9.87;5.73;;;5.60;99.90;;;;;;4942677;29;20454;-83
2021/11/25 00:56:03;;;;;;;12.40;7.00;;;5.70;99.90;;;;;;4955641;28;20447;-84
2021/11/25 00:58:51;;;;;;;10.37;5.40;;;5.80;99.90;;;;;;4943673;28;20456;-83
2021/11/25 01:01:41;;;;;;;15.57;6.47;;;5.70;99.90;;;;;;4951734;28;20821;-84
2021/11/25 01:04:30;;;;;;;11.83;6.43;;;5.70;99.90;;;;;;4946377;28;20455;-83
2021/11/25 01:07:19;;;;;;;12.07;7.17;;;5.60;99.90;;;;;;4951026;28;20447;-82
2021/11/25 01:10:10;;;;;;;13.40;7.13;;;5.70;99.90;;;;;;4945897;28;20972;-82
2021/11/25 01:13:00;;;;;;;11.03;6.27;;;5.60;99.90;;;;;;4954025;28;20484;-82
2021/11/25 01:15:49;;;;;;;14.53;7.83;;;5.50;99.90;;;;;;4960323;28;20455;-83
2021/11/25 01:18:39;;;;;;;8.93;5.10;;;5.60;99.90;;;;;;4959244;29;20460;-84
2021/11/25 01:21:27;;;;;;;12.20;5.57;;;5.60;99.90;;;;;;4963676;28;20436;-84
2021/11/25 01:24:16;;;;;;;11.40;6.23;;;5.70;99.90;;;;;;4950550;28;20551;-82
2021/11/25 01:27:05;;;;;;;12.43;6.30;;;5.90;99.90;;;;;;4955275;29;20448;-84
2021/11/25 01:29:53;;;;;;;9.47;6.20;;;5.60;99.90;;;;;;4956887;29;20472;-84
2021/11/25 01:32:43;;;;;;;10.37;5.70;;;5.60;99.90;;;;;;4952963;28;20455;-83
2021/11/25 01:35:33;;;;;;;10.43;5.93;;;5.50;99.90;;;;;;4954908;28;20456;-83
2021/11/25 01:38:22;;;;;;;10.20;5.60;;;5.60;99.90;;;;;;4941498;29;20538;-84
2021/11/25 01:41:10;;;;;;;13.60;5.77;;;5.50;99.90;;;;;;4952294;28;20455;-83
2021/11/25 01:43:59;;;;;;;12.03;5.97;;;5.50;99.90;;;;;;4959688;28;20468;-84
2021/11/25 01:46:47;;;;;;;14.13;7.70;;;5.40;99.90;;;;;;4958605;28;20452;-84
2021/11/25 01:49:36;;;;;;;13.17;7.60;;;5.40;99.90;;;;;;4956925;29;20448;-84
2021/11/25 01:52:26;;;;;;;9.70;6.90;;;5.60;99.90;;;;;;4955351;29;20986;-82
2021/11/25 01:55:17;;;;;;;14.60;5.63;;;5.50;99.90;;;;;;4956879;28;20449;-84
2021/11/25 01:58:05;;;;;;;14.10;7.10;;;5.50;99.90;;;;;;4947042;29;20515;-85
2021/11/25 02:00:59;;;;;;;13.97;6.73;;;5.60;99.90;;;;;;4955054;29;20450;-85
2021/11/25 02:03:50;;;;;;;15.60;7.80;;;5.40;99.90;;;;;;4957080;28;20435;-85
2021/11/25 02:06:39;;;;;;;13.30;7.20;;;5.40;99.90;;;;;;4955732;28;20433;-85
2021/11/25 02:09:29;;;;;;;13.50;6.20;;;5.50;99.90;;;;;;4943866;28;20456;-85
2021/11/25 02:12:18;;;;;;;9.00;5.90;;;5.50;99.90;;;;;;4951388;28;20437;-83
2021/11/25 02:15:07;;;;;;;12.80;7.00;;;5.70;99.90;;;;;;4951245;29;20959;-83
2021/11/25 02:17:56;;;;;;;11.50;6.60;;;5.80;99.90;;;;;;4950577;29;20488;-83
2021/11/25 02:20:49;;;;;;;11.53;5.90;;;5.70;99.90;;;;;;4955418;28;20817;-84
2021/11/25 02:23:38;;;;;;;11.23;5.60;;;5.50;99.90;;;;;;4954504;29;21015;-85
2021/11/25 02:26:27;;;;;;;14.23;6.43;;;5.70;99.90;;;;;;4943461;28;24719;-84
2021/11/25 02:29:15;;;;;;;10.30;6.20;;;5.70;99.90;;;;;;4944359;28;20468;-84
2021/11/25 02:32:04;;;;;;;11.23;6.20;;;5.70;99.90;;;;;;4951426;29;20441;-84
2021/11/25 02:34:53;;;;;;;10.10;6.10;;;5.70;99.90;;;;;;4955917;29;20433;-84
2021/11/25 02:37:43;;;;;;;11.60;6.70;;;5.70;99.90;;;;;;4948748;29;20483;-84
2021/11/25 02:40:35;;;;;;;12.17;5.87;;;5.80;99.90;;;;;;4937640;29;20449;-84
2021/11/25 02:43:26;;;;;;;13.53;7.00;;;5.90;99.90;;;;;;4956187;29;20432;-84
2021/11/25 02:46:15;;;;;;;14.93;7.90;;;5.80;99.90;;;;;;4952508;29;20444;-84
2021/11/25 02:49:03;;;;;;;10.20;5.90;;;6.10;99.90;;;;;;4955859;28;20459;-84
2021/11/25 02:51:52;;;;;;;13.17;6.43;;;5.80;99.90;;;;;;4947670;29;20870;-84
2021/11/25 02:54:44;;;;;;;16.63;6.80;;;5.80;99.90;;;;;;4955133;28;20448;-84
2021/11/25 02:57:34;;;;;;;14.67;7.10;;;5.80;99.90;;;;;;4948250;28;20817;-86
2021/11/25 03:00:33;;;;;;;14.10;7.03;;;5.90;99.90;;;;;;4953042;28;21105;-85
2021/11/25 03:03:22;;;;;;;16.70;8.20;;;5.90;99.90;;;;;;4954730;29;20443;-85
2021/11/25 03:06:11;;;;;;;15.93;7.43;;;5.80;99.90;;;;;;4945193;29;20449;-85
2021/11/25 03:09:00;;;;;;;10.83;5.73;;;5.80;99.90;;;;;;4953731;28;20472;-84
2021/11/25 03:11:53;;;;;;;13.07;7.33;;;5.80;99.90;;;;;;4953131;28;21301;-83
2021/11/25 03:14:43;;;;;;;13.17;6.10;;;5.70;99.90;;;;;;4953376;28;20452;-84
2021/11/25 03:17:31;;;;;;;18.37;7.00;;;5.70;99.90;;;;;;4957122;28;20499;-85
2021/11/25 03:20:21;;;;;;;10.83;7.47;;;5.70;99.90;;;;;;4954299;28;20444;-85
2021/11/25 03:23:12;;;;;;;15.00;7.00;;;5.50;99.90;;;;;;4958659;28;20445;-85
2021/11/25 03:26:03;;;;;;;15.57;7.17;;;5.50;99.90;;;;;;4945372;28;20451;-85
2021/11/25 03:28:53;;;;;;;14.53;6.77;;;5.60;99.90;;;;;;4950241;28;20471;-85
2021/11/25 03:31:42;;;;;;;11.70;6.53;;;5.50;99.90;;;;;;4948173;29;20467;-85
2021/11/25 03:34:30;;;;;;;12.80;5.78;;;5.80;99.90;;;;;;4952162;29;20457;-85
2021/11/25 03:37:19;;;;;;;11.57;5.50;;;5.50;99.90;;;;;;4946236;28;20607;-85
2021/11/25 03:40:09;;;;;;;9.73;6.00;;;5.40;99.90;;;;;;4945259;29;20964;-85
2021/11/25 03:42:58;;;;;;;12.05;7.43;;;5.40;99.90;;;;;;4945785;28;20817;-83
2021/11/25 03:45:48;;;;;;;16.57;6.93;;;5.40;99.90;;;;;;4949358;29;20212;-84
2021/11/25 03:48:37;;;;;;;15.90;6.33;;;5.50;99.90;;;;;;4948333;29;20530;-85
2021/11/25 03:51:25;;;;;;;14.60;6.93;;;5.80;99.90;;;;;;4945528;29;20449;-85
2021/11/25 03:54:14;;;;;;;11.73;7.00;;;5.50;99.90;;;;;;4954190;28;20428;-85
2021/11/25 03:57:02;;;;;;;13.43;7.60;;;5.50;99.90;;;;;;4953334;29;20463;-85
2021/11/25 03:59:52;;;;;;;12.07;6.70;;;5.50;99.90;;;;;;4947563;28;20451;-85
2021/11/25 04:02:44;;;;;;;14.80;8.00;;;5.60;99.90;;;;;;4953300;29;20687;-84
2021/11/25 04:05:34;;;;;;;12.38;6.68;;;5.60;99.90;;;;;;4955309;29;20451;-84
2021/11/25 04:08:23;;;;;;;17.23;7.20;;;5.70;99.90;;;;;;4946036;28;20222;-83
2021/11/25 04:11:12;;;;;;;17.03;8.20;;;5.70;99.90;;;;;;4956171;28;21151;-83
2021/11/25 04:14:03;;;;;;;17.20;9.17;;;5.60;99.90;;;;;;4955409;29;20967;-84
2021/11/25 04:16:52;;;;;;;13.73;7.70;;;5.50;99.90;;;;;;4939721;29;20426;-83
2021/11/25 04:19:43;;;;;;;14.50;7.67;;;5.50;99.90;;;;;;4966019;28;20460;-83
2021/11/25 04:22:31;;;;;;;15.43;7.60;;;5.40;99.90;;;;;;4958964;28;20982;-84
2021/11/25 04:25:20;;;;;;;10.97;6.03;;;5.50;99.90;;;;;;4950147;28;20532;-84
2021/11/25 04:28:09;;;;;;;12.70;7.80;;;5.70;99.90;;;;;;4954115;28;20460;-85
2021/11/25 04:37:11;;;;;;;14.50;8.40;;;5.40;99.90;;;;;;4946097;28;20566;-85
2021/11/25 04:39:59;;;;;;;15.90;7.90;;;5.50;99.90;;;;;;4947430;29;20468;-84
2021/11/25 04:42:48;;;;;;;17.02;7.05;;;5.40;99.90;;;;;;4949800;28;20432;-85
2021/11/25 04:45:39;;;;;;;17.55;9.43;;;5.40;99.90;;;;;;4947363;28;20204;-84
2021/11/25 04:48:28;;;;;;;10.88;7.28;;;5.50;99.90;;;;;;4940384;29;20229;-84
2021/11/25 04:51:17;;;;;;;11.13;7.60;;;5.60;99.90;;;;;;4954455;28;20586;-83
2021/11/25 04:54:07;;;;;;;18.50;7.40;;;5.80;99.90;;;;;;4950119;29;21083;-84
2021/11/25 04:56:56;;;;;;;17.13;8.47;;;5.60;99.90;;;;;;4950454;28;20453;-83
2021/11/25 04:59:45;;;;;;;13.70;7.07;;;5.60;99.90;;;;;;4947392;29;20487;-84
2021/11/25 05:02:33;;;;;;;15.07;7.32;;;5.60;99.90;;;;;;4944172;29;20956;-84
2021/11/25 05:05:22;;;;;;;17.23;7.20;;;5.60;99.90;;;;;;4950146;29;20285;-84
2021/11/25 05:08:11;;;;;;;18.10;8.23;;;5.80;99.90;;;;;;4951797;28;20244;-84
2021/11/25 05:11:01;;;;;;;12.97;6.90;;;5.50;99.90;;;;;;4950117;28;20444;-78
2021/11/25 05:13:50;;;;;;;11.20;7.33;;;5.40;99.90;;;;;;4951218;28;20456;-84
2021/11/25 05:16:38;;;;;;;14.63;7.47;;;5.40;99.90;;;;;;4950679;28;20455;-84
2021/11/25 05:19:27;;;;;;;12.70;7.10;;;5.20;99.90;;;;;;4948992;28;20551;-84
2021/11/25 05:22:16;;;;;;;15.13;7.90;;;5.20;99.90;;;;;;4949079;28;21050;-83
2021/11/25 05:25:06;;;;;;;13.20;8.07;;;5.20;99.90;;;;;;4951477;28;20212;-83
2021/11/25 05:27:56;;;;;;;12.83;7.07;;;5.40;99.90;;;;;;4957386;28;20474;-82
2021/11/25 05:30:45;;;;;;;13.18;8.98;;;5.40;99.90;;;;;;4939783;28;20444;-82
2021/11/25 05:33:33;;;;;;;13.63;7.38;;;5.50;99.90;;;;;;4933297;28;20213;-83
2021/11/25 05:36:22;;;;;;;14.43;7.83;;;5.50;99.90;;;;;;4930108;29;20200;-83
2021/11/25 05:39:11;;;;;;;13.30;7.80;;;5.60;99.90;;;;;;4944577;29;20480;-85
2021/11/25 05:42:00;;;;;;;17.40;8.27;;;5.60;99.90;;;;;;4944203;29;20436;-84
2021/11/25 05:44:50;;;;;;;13.02;7.53;;;5.60;99.90;;;;;;4952456;29;21021;-84
2021/11/25 05:47:41;;;;;;;17.23;7.00;;;5.60;99.90;;;;;;4952977;29;20251;-84
2021/11/25 05:50:30;;;;;;;14.33;7.77;;;5.50;99.90;;;;;;4951583;29;20433;-84
2021/11/25 05:53:20;;;;;;;18.73;9.23;;;5.40;99.90;;;;;;4942170;29;20455;-85
2021/11/25 05:56:09;;;;;;;12.65;7.32;;;5.40;99.90;;;;;;4948958;28;20448;-83
2021/11/25 05:58:58;;;;;;;15.35;8.18;;;5.40;99.90;;;;;;4951109;28;20724;-83
2021/11/25 06:01:48;;;;;;;18.07;7.93;;;5.50;99.90;;;;;;4953182;28;20240;-84
2021/11/25 06:04:37;;;;;;;14.70;7.80;;;5.60;99.90;;;;;;4955508;29;20444;-84
2021/11/25 06:07:25;;;;;;;14.57;7.50;;;5.50;99.90;;;;;;4953257;29;20479;-84
2021/11/25 06:10:16;;;;;;;13.53;7.23;;;5.50;99.90;;;;;;4952389;28;20424;-84
2021/11/25 06:13:04;;;;;;;13.60;8.03;;;5.40;99.90;;;;;;4952129;28;20460;-85
2021/11/25 06:15:53;;;;;;;17.65;9.02;;;5.50;99.90;;;;;;4947988;29;20452;-84
2021/11/25 06:18:43;;;;;;;14.27;7.57;;;5.60;99.90;;;;;;4941770;28;20237;-84
2021/11/25 06:21:32;;;;;;;13.55;8.15;;;5.70;99.90;;;;;;4955291;28;20986;-83
2021/11/25 06:24:20;;;;;;;17.88;7.47;;;5.60;99.90;;;;;;4952282;28;20293;-84
2021/11/25 06:27:09;;;;;;;12.33;7.37;;;5.60;99.90;;;;;;4951956;28;20208;-84
2021/11/25 06:29:57;;;;;;;15.30;8.40;;;5.60;99.90;;;;;;4956265;28;20793;-83
2021/11/25 06:32:48;;;;;;;13.40;7.40;;;5.60;99.90;;;;;;4951850;29;20440;-85
2021/11/25 06:35:38;;;;;;;16.70;8.30;;;5.50;99.90;;;;;;4955344;28;20464;-83
2021/11/25 06:38:27;;;;;;;16.07;8.20;;;5.40;99.90;;;;;;4945307;28;20464;-84
2021/11/25 06:41:15;;;;;;;13.70;6.97;;;5.40;99.90;;;;;;4954361;29;20441;-83
2021/11/25 06:44:05;;;;;;;21.50;8.35;;;5.30;99.90;;;;;;4947481;29;20975;-85
2021/11/25 06:46:53;;;;;;;17.63;8.80;;;5.30;99.90;;;;;;4949015;28;20201;-84
2021/11/25 06:49:42;;;;;;;18.45;8.25;;;5.50;99.90;;;;;;4955750;28;20436;-83
2021/11/25 06:52:32;;;;;;;13.10;6.90;;;5.60;99.90;;;;;;4950140;29;20537;-84
2021/11/25 06:55:21;;;;;;;18.67;8.75;;;5.60;99.90;;;;;;4950004;28;20448;-84
2021/11/25 06:58:09;;;;;;;11.43;6.90;;;5.60;99.90;;;;;;4946876;28;20810;-85
2021/11/25 07:01:00;;;;;;;16.92;7.30;;;5.60;99.90;;;;;;4954259;28;20726;-85
2021/11/25 07:03:49;;;;;;;18.90;8.40;;;5.50;99.90;;;;;;4953623;28;20211;-86
2021/11/25 07:06:38;;;;;;;16.20;8.10;;;5.60;99.90;;;;;;4955215;28;20447;-85
2021/11/25 07:09:28;;;;;;;13.47;8.63;;;5.60;99.90;;;;;;4948613;28;20469;-85
2021/11/25 07:12:16;;;;;;;17.25;8.57;;;5.70;99.90;;;;;;4939171;28;20436;-85
2021/11/25 07:15:06;;;;;;;15.97;9.10;;;5.80;99.90;;;;;;4949000;28;20196;-86
2021/11/25 07:17:55;;;;;;;17.23;8.00;;;5.40;99.90;;;;;;4940974;29;20462;-86
2021/11/25 07:20:43;;;;;;;15.53;7.70;;;5.30;99.90;;;;;;4955283;28;20663;-86
2021/11/25 07:23:32;;;;;;;19.70;9.10;;;5.40;99.90;;;;;;4952920;28;20451;-85
2021/11/25 07:26:23;;;;;;;16.80;9.57;;;5.40;99.90;;;;;;4954493;28;20448;-86
2021/11/25 07:29:11;;;;;;;24.33;10.50;;;5.40;99.90;;;;;;4947503;29;20456;-84
2021/11/25 07:32:00;;;;;;;12.43;7.32;;;5.40;99.90;;;;;;4948411;29;20212;-86
2021/11/25 07:34:48;;;;;;;14.40;7.47;;;5.30;99.90;;;;;;4953525;28;20313;-87
2021/11/25 07:37:37;;;;;;;19.63;9.53;;;5.20;99.90;;;;;;4958208;28;20223;-85
2021/11/25 07:40:26;;;;;;;17.17;7.80;;;5.20;99.90;;;;;;4965299;28;20495;-86
2021/11/25 07:43:16;;;;;;;19.88;8.38;;;5.20;99.90;;;;;;4941521;29;20456;-82
2021/11/25 07:46:05;;;;;;;20.33;9.03;;;5.20;99.90;;;;;;4948267;28;20200;-86
2021/11/25 07:48:54;;;;;;;20.50;9.13;;;5.40;99.90;;;;;;4946504;28;20479;-84
2021/11/25 07:51:43;;;;;;;15.33;7.80;;;5.50;99.90;;;;;;4945615;28;20454;-84
2021/11/25 07:54:32;;;;;;;17.63;8.50;;;5.50;99.90;;;;;;4937400;29;20444;-86
2021/11/25 07:57:21;;;;;;;16.13;9.63;;;5.70;99.90;;;;;;4951271;28;20535;-84
2021/11/25 08:00:13;;;;;;;19.13;8.13;;;5.40;99.90;;;;;;4956597;28;20464;-84
2021/11/25 08:03:02;;;;;;;22.73;10.80;;;5.50;99.90;;;;;;4960756;28;21180;-84
2021/11/25 08:05:50;;;;;;;19.60;9.30;;;5.60;99.90;;;;;;4951234;28;20465;-85
2021/11/25 08:08:41;;;;;;;15.00;7.63;;;5.60;99.90;;;;;;4949766;29;21006;-83
2021/11/25 08:11:30;;;;;;;13.70;7.80;;;5.60;99.90;;;;;;4949743;29;20435;-84
2021/11/25 08:14:18;;;;;;;17.13;8.97;;;5.50;99.90;;;;;;4936390;28;20213;-83
2021/11/25 08:17:10;;;;;;;17.33;8.43;;;5.60;99.90;;;;;;4950522;29;20437;-82
2021/11/25 08:19:58;;;;;;;28.90;9.50;;;5.70;99.90;;;;;;4954191;28;20463;-83
2021/11/25 08:22:47;;;;;;;22.63;8.67;;;5.70;99.90;;;;;;4947486;28;20457;-83
2021/11/25 08:25:36;;;;;;;21.53;8.70;;;5.70;99.90;;;;;;4943822;29;20436;-83
2021/11/25 08:28:25;;;;;;;20.60;8.33;;;5.70;99.90;;;;;;4952528;28;20464;-84
2021/11/25 08:31:14;;;;;;;16.60;8.73;;;5.60;99.90;;;;;;4939042;29;20448;-84
2021/11/25 08:34:09;;;;;;;21.33;8.97;;;5.70;99.90;;;;;;4952030;28;20826;-83
2021/11/25 08:36:58;;;;;;;14.50;7.78;;;5.70;99.90;;;;;;4947905;28;20453;-83
2021/11/25 08:39:46;;;;;;;19.60;8.57;;;5.70;99.90;;;;;;4942791;28;20220;-84
2021/11/25 08:42:35;;;;;;;18.65;9.02;;;5.60;99.90;;;;;;4949419;28;20436;-83
2021/11/25 08:45:24;;;;;;;13.57;7.47;;;5.50;99.90;;;;;;4948868;29;20209;-84
2021/11/25 08:48:13;;;;;;;19.15;9.40;;;5.50;99.90;;;;;;4955619;28;21002;-84
2021/11/25 08:51:04;;;;;;;13.33;6.73;;;5.60;99.90;;;;;;4942662;28;20214;-85
2021/11/25 08:53:52;;;;;;;15.45;7.97;;;5.60;99.90;;;;;;4947735;28;20460;-85
2021/11/25 08:56:41;;;;;;;16.58;8.18;;;5.70;99.90;;;;;;4932945;29;20220;-85
2021/11/25 08:59:29;;;;;;;19.38;9.55;;;5.70;99.90;;;;;;4945238;28;20557;-84
2021/11/25 09:02:18;;;;;;;17.20;8.60;;;5.70;99.90;;;;;;4945678;28;20220;-84
2021/11/25 09:05:10;;;;;;;15.30;7.70;;;5.50;99.90;;;;;;4951936;28;20818;-85
2021/11/25 09:08:00;;;;;;;21.97;8.80;;;5.50;99.90;;;;;;4952372;28;20468;-84
2021/11/25 09:10:49;;;;;;;20.57;10.00;;;5.60;99.90;;;;;;4959148;28;20950;-84
2021/11/25 09:13:38;;;;;;;20.33;9.07;;;5.70;99.90;;;;;;4947364;28;20456;-83
2021/11/25 09:16:27;;;;;;;14.48;7.88;;;5.80;99.90;;;;;;4950789;28;20462;-84
2021/11/25 09:19:16;;;;;;;14.20;8.63;;;5.80;99.90;;;;;;4947986;28;20694;-85
2021/11/25 09:22:05;;;;;;;15.90;8.27;;;5.80;99.90;;;;;;4941598;28;20479;-83
2021/11/25 09:24:55;;;;;;;23.33;9.10;;;5.80;99.90;;;;;;4947155;28;20470;-84
2021/11/25 09:27:45;;;;;;;20.00;8.10;;;5.80;99.90;;;;;;4940489;28;20985;-85
2021/11/25 09:30:34;;;;;;;20.63;9.00;;;5.90;99.90;;;;;;4952015;28;20452;-85
2021/11/25 09:33:23;;;;;;;19.63;10.30;;;6.10;99.90;;;;;;4955898;28;20444;-85
2021/11/25 09:36:12;;;;;;;19.70;9.83;;;5.80;99.90;;;;;;4950362;28;21168;-85
2021/11/25 09:39:07;;;;;;;16.13;7.67;;;5.80;99.90;;;;;;4951823;28;20529;-85
2021/11/25 09:41:58;;;;;;;11.10;7.20;;;5.80;99.90;;;;;;4947261;28;20522;-84
2021/11/25 09:44:47;;;;;;;18.97;8.10;;;5.80;99.90;;;;;;4946832;28;20819;-85
2021/11/25 09:47:37;;;;;;;17.70;7.97;;;5.90;99.90;;;;;;4941169;28;20467;-85
2021/11/25 09:50:29;;;;;;;16.07;7.63;;;5.90;99.90;;;;;;4945987;28;20457;-85
2021/11/25 09:53:20;;;;;;;19.10;8.60;;;5.90;99.90;;;;;;4943557;28;20865;-85
2021/11/25 09:56:10;;;;;;;17.00;9.10;;;6.00;99.90;;;;;;4951752;28;20460;-86
2021/11/25 09:59:00;;;;;;;15.57;8.63;;;6.00;99.90;;;;;;4950150;28;21329;-84
2021/11/25 10:01:48;;;;;;;19.30;7.70;;;6.00;99.90;;;;;;4949462;28;20512;-83
2021/11/25 10:04:37;;;;;;;17.33;8.70;;;6.00;99.90;;;;;;4946868;28;20458;-82
2021/11/25 10:07:31;;;;;;;13.20;8.97;;;6.00;99.90;;;;;;4952185;28;20996;-82
2021/11/25 10:10:27;;;;;;;15.17;8.27;;;6.00;99.90;;;;;;4955585;28;20447;-80
2021/11/25 10:13:19;;;;;;;19.65;10.13;;;6.00;99.90;;;;;;4945751;28;20823;-84
2021/11/25 10:16:13;;;;;;;18.40;9.30;;;5.90;99.90;;;;;;4947395;29;20205;-82
2021/11/25 10:19:12;;;;;;;18.07;10.77;;;6.00;99.90;;;;;;4950720;28;20472;-84
2021/11/25 10:22:10;;;;;;;18.03;8.83;;;5.90;99.90;;;;;;4949702;28;20490;-85
2021/11/25 10:25:02;;;;;;;13.83;7.77;;;5.80;99.90;;;;;;4943738;29;21069;-83
2021/11/25 10:27:50;;;;;;;23.47;9.80;;;5.80;99.90;;;;;;4943239;28;20476;-83
2021/11/25 10:30:39;;;;;;;21.70;10.53;;;5.80;99.90;;;;;;4948179;28;20456;-84
2021/11/25 10:33:36;;;;;;;23.17;10.10;;;5.80;99.90;;;;;;4944311;29;20479;-85
2021/11/25 10:36:33;;;;;;;17.50;9.27;;;5.80;99.90;;;;;;4943946;29;20567;-85
2021/11/25 10:42:33;;;;;;;20.03;8.60;;;5.70;99.90;;;;;;4959709;28;20506;-85
2021/11/25 10:45:22;;;;;;;20.43;9.50;;;5.80;99.90;;;;;;4937192;28;20808;-83
2021/11/25 10:48:11;;;;;;;19.97;8.13;;;5.80;99.90;;;;;;4939541;28;20460;-84
2021/11/25 10:51:01;;;;;;;13.07;9.00;;;5.90;99.90;;;;;;4948822;28;20445;-85
2021/11/25 10:54:02;;;;;;;22.63;8.37;;;5.90;99.90;;;;;;4950138;28;20452;-84
2021/11/25 10:56:52;;;;;;;16.03;7.83;;;5.90;99.90;;;;;;4956968;28;20462;-84
2021/11/25 10:59:42;;;;;;;19.83;10.40;;;5.90;99.90;;;;;;4946866;28;20448;-84
2021/11/25 11:02:32;;;;;;;14.53;9.10;;;5.80;99.90;;;;;;4948400;28;20480;-84
2021/11/25 11:05:22;;;;;;;21.80;10.50;;;5.80;99.90;;;;;;4945263;29;20562;-83
2021/11/25 11:08:13;;;;;;;14.80;7.80;;;5.80;99.90;;;;;;4951580;28;20761;-83
2021/11/25 11:11:04;;;;;;;20.60;8.63;;;5.70;99.90;;;;;;4950153;28;20436;-84
2021/11/25 11:14:27;;;;;;;19.52;9.73;;;5.80;99.90;;;;;;4948555;28;20440;-84
2021/11/25 11:17:22;;;;;;;21.20;11.00;;;5.90;99.90;;;;;;4944537;28;20217;-84
2021/11/25 11:20:16;;;;;;;16.17;7.90;;;5.90;99.90;;;;;;4948955;28;20444;-83
2021/11/25 11:23:06;;;;;;;21.50;9.95;;;5.70;99.90;;;;;;4952541;28;20444;-83
2021/11/25 11:25:56;;;;;;;20.93;11.30;;;5.80;99.90;;;;;;4955453;29;20735;-84
2021/11/25 11:28:45;;;;;;;20.67;8.40;;;5.80;99.90;;;;;;4944701;29;20511;-84
2021/11/25 11:31:35;;;;;;;16.00;9.43;;;5.90;99.90;;;;;;4956484;28;21095;-84
2021/11/25 11:34:25;;;;;;;17.97;9.20;;;6.00;99.90;;;;;;4967634;28;20446;-82
2021/11/25 11:37:14;;;;;;;18.57;8.20;;;6.10;99.90;;;;;;4953187;28;20447;-84
2021/11/25 11:40:07;;;;;;;15.50;8.90;;;6.10;99.90;;;;;;4956081;28;20460;-83
2021/11/25 11:43:13;;;;;;;19.97;9.93;;;6.10;99.90;;;;;;4952286;28;20488;-84
2021/11/25 11:46:01;;;;;;;18.63;9.17;;;6.10;99.90;;;;;;4962445;28;20458;-83
2021/11/25 11:48:52;;;;;;;18.63;7.60;;;6.20;99.90;;;;;;4947216;28;20496;-82
2021/11/25 11:51:41;;;;;;;21.60;9.80;;;6.20;99.90;;;;;;4952026;28;20436;-83
2021/11/25 11:54:39;;;;;;;16.60;9.10;;;6.20;99.90;;;;;;4949339;28;20459;-83
2021/11/25 11:57:34;;;;;;;19.47;8.87;;;6.20;99.90;;;;;;4944961;28;20830;-84
2021/11/25 12:00:37;;;;;;;20.20;10.27;;;6.20;99.90;;;;;;4963390;28;20431;-82
2021/11/25 12:03:32;;;;;;;17.60;7.30;;;6.30;99.90;;;;;;4948143;29;20903;-85
2021/11/25 12:06:37;;;;;;;15.70;7.70;;;6.30;99.90;;;;;;4950148;28;20495;-82
2021/11/25 12:09:36;;;;;;;15.57;7.80;;;6.30;99.90;;;;;;4949116;28;20465;-84
2021/11/25 12:12:24;;;;;;;18.27;8.13;;;6.40;99.90;;;;;;4951938;28;20453;-84
2021/11/25 12:15:18;;;;;;;16.77;7.57;;;6.40;99.90;;;;;;4954267;28;20473;-84
2021/11/25 12:17:48;;;;;;;16.83;8.10;;;6.40;99.90;;;;;;4949690;29;21078;-82
2021/11/25 12:20:19;;;;;;;19.27;8.63;;;6.40;99.90;;;;;;4950476;28;20476;-84
2021/11/25 12:22:50;;;;;;;15.53;7.87;;;6.40;99.90;;;;;;4942877;29;20479;-80
2021/11/25 12:25:34;;;;;;;15.23;8.23;;;6.40;99.90;;;;;;4949572;29;20511;-80
2021/11/25 12:28:22;;;;;;;17.60;8.13;;;6.30;99.90;;;;;;4943306;29;20770;-81
2021/11/25 12:30:55;;;;;;;14.87;8.07;;;6.30;99.90;;;;;;4948164;29;20457;-83
2021/11/25 12:33:43;;;;;;;18.83;7.73;;;6.60;99.90;;;;;;4948485;28;20471;-83
2021/11/25 12:36:35;;;;;;;14.50;8.00;;;6.40;99.90;;;;;;4931311;29;20495;-82
2021/11/25 12:39:04;;;;;;;16.37;8.30;;;6.40;99.90;;;;;;4939162;28;20484;-84
2021/11/25 12:41:36;;;;;;;19.63;8.57;;;6.40;99.90;;;;;;4947768;29;20557;-83
2021/11/25 12:44:05;;;;;;;24.00;11.20;;;6.50;99.90;;;;;;4942863;28;20461;-84
2021/11/25 12:46:33;;;;;;;17.80;10.00;;;6.50;99.90;;;;;;4946179;29;20480;-87
2021/11/25 12:49:04;;;;;;;15.30;8.80;;;6.50;99.90;;;;;;4948042;28;20507;-82
2021/11/25 12:51:33;;;;;;;16.97;8.00;;;6.50;99.90;;;;;;4953284;28;20480;-83
2021/11/25 12:54:05;;;;;;;19.23;9.70;;;6.60;99.90;;;;;;4939841;29;20652;-80
2021/11/25 12:56:38;;;;;;;15.17;8.50;;;6.60;99.90;;;;;;4952231;29;20445;-82
2021/11/25 12:59:08;;;;;;;14.20;8.33;;;6.60;99.90;;;;;;4934876;28;20483;-83
2021/11/25 13:01:38;;;;;;;16.77;8.40;;;6.60;99.90;;;;;;4950800;28;20459;-83
2021/11/25 13:04:14;;;;;;;15.33;7.60;;;6.60;99.90;;;;;;4953904;28;20513;-82
2021/11/25 13:06:44;;;;;;;12.33;7.77;;;6.70;99.90;;;;;;4953864;28;20462;-83
2021/11/25 13:09:14;;;;;;;18.17;8.90;;;6.60;99.90;;;;;;4955877;28;20496;-80
2021/11/25 13:11:45;;;;;;;20.40;10.53;;;6.70;99.90;;;;;;4962448;28;20462;-83
2021/11/25 13:14:18;;;;;;;12.97;7.80;;;6.60;99.90;;;;;;4958850;28;20894;-80
2021/11/25 13:16:48;;;;;;;20.50;9.70;;;6.60;99.90;;;;;;4952147;28;20886;-79
2021/11/25 13:19:22;;;;;;;19.08;10.32;;;6.60;99.90;;;;;;4951094;28;20441;-85
2021/11/25 13:21:53;;;;;;;13.97;8.20;;;6.60;99.90;;;;;;4955775;28;20837;-84
2021/11/25 13:24:26;;;;;;;15.77;7.50;;;6.60;99.90;;;;;;4955286;28;20464;-83
2021/11/25 13:26:58;;;;;;;18.70;10.47;;;6.60;99.90;;;;;;4962410;28;20468;-80
2021/11/25 13:29:36;;;;;;;16.20;9.23;;;6.60;99.90;;;;;;4962374;28;20510;-83
2021/11/25 13:32:07;;;;;;;16.00;8.50;;;6.60;99.90;;;;;;4954770;28;20452;-82
2021/11/25 13:34:38;;;;;;;15.13;7.83;;;6.60;99.90;;;;;;4951108;28;20470;-84
2021/11/25 13:37:10;;;;;;;10.87;7.43;;;6.60;99.90;;;;;;4951402;28;20528;-83
2021/11/25 13:39:43;;;;;;;16.60;7.50;;;6.60;99.90;;;;;;4935836;29;20483;-84
2021/11/25 13:42:13;;;;;;;15.27;8.33;;;6.60;99.90;;;;;;4963153;28;20463;-82
2021/11/25 13:44:43;;;;;;;14.20;7.03;;;6.60;99.90;;;;;;4962786;28;20510;-84
2021/11/25 13:47:19;;;;;;;15.98;7.80;;;6.60;99.90;;;;;;4956719;28;20449;-84
2021/11/25 13:49:54;;;;;;;15.80;8.43;;;6.70;99.90;;;;;;4951805;28;20208;-81
2021/11/25 13:52:29;;;;;;;16.73;6.77;;;6.70;99.90;;;;;;4942017;29;20457;-82
2021/11/25 13:54:58;;;;;;;17.13;9.17;;;6.60;99.90;;;;;;4954531;29;20449;-82
2021/11/25 13:57:26;;;;;;;12.90;6.77;;;6.60;99.90;;;;;;4944851;28;20760;-83
2021/11/25 13:59:55;;;;;;;20.07;9.17;;;6.70;99.90;;;;;;4933022;28;22355;-84
2021/11/25 14:02:25;;;;;;;17.43;7.57;;;6.70;99.90;;;;;;4948505;28;20467;-80
2021/11/25 14:04:56;;;;;;;14.07;7.90;;;6.70;99.90;;;;;;4948184;28;20511;-82
2021/11/25 14:07:25;;;;;;;17.30;8.40;;;6.70;99.90;;;;;;4942327;29;20455;-84
2021/11/25 14:10:11;;;;;;;18.13;10.03;;;6.70;99.90;;;;;;4933771;29;20557;-84
2021/11/25 14:12:41;;;;;;;13.97;7.70;;;6.60;99.90;;;;;;4943902;29;20469;-84
2021/11/25 14:15:23;;;;;;;14.97;7.63;;;6.60;99.90;;;;;;4941852;28;20465;-85
2021/11/25 14:17:51;;;;;;;17.03;7.90;;;6.60;99.90;;;;;;4948920;28;21184;-84
2021/11/25 14:20:27;;;;;;;14.13;8.00;;;6.60;99.90;;;;;;4951730;28;20448;-84
2021/11/25 14:22:56;;;;;;;16.97;7.30;;;6.60;99.90;;;;;;4949367;28;20468;-85
2021/11/25 14:25:31;;;;;;;11.37;7.33;;;6.60;99.90;;;;;;4949542;29;20484;-83
2021/11/25 14:31:10;;;;;;;16.80;8.93;;;6.60;99.90;;;;;;4947087;28;20499;-83
2021/11/25 14:33:46;;;;;;;17.60;7.80;;;6.50;99.90;;;;;;4953516;28;20459;-84
2021/11/25 14:36:21;;;;;;;15.83;7.40;;;6.50;99.90;;;;;;4946534;29;20491;-83
2021/11/25 14:38:50;;;;;;;11.87;7.67;;;6.50;99.90;;;;;;4946275;29;20476;-83
2021/11/25 14:41:26;;;;;;;15.70;8.00;;;6.50;99.90;;;;;;4942312;28;20472;-83